sensor_id;sensor_type;location;lat;lon;timestamp;temperature;humidity
5286;DHT22;2665;53.112;7.358;2023-04-08T00:00:15;3.90;99.90
5286;DHT22;2665;53.112;7.358;2023-04-08T00:02:41;3.90;99.90
5286;DHT22;2665;53.112;7.358;2023-04-08T00:05:08;3.80;99.90
5286;DHT22;2665;53.112;7.358;2023-04-08T00:07:33;3.70;99.90
5286;DHT22;2665;53.112;7.358;2023-04-08T00:09:59;3.70;1.00
5286;DHT22;2665;53.112;7.358;2023-04-08T00:12:25;3.80;99.90
5286;DHT22;2665;53.112;7.358;2023-04-08T00:14:50;3.70;99.90
5286;DHT22;2665;53.112;7.358;2023-04-08T00:17:16;3.70;99.90
5286;DHT22;2665;53.112;7.358;2023-04-08T00:19:42;3.60;99.90
5286;DHT22;2665;53.112;7.358;2023-04-08T00:22:09;3.60;99.90
5286;DHT22;2665;53.112;7.358;2023-04-08T00:24:34;3.60;1.00
5286;DHT22;2665;53.112;7.358;2023-04-08T00:27:00;3.60;1.00
5286;DHT22;2665;53.112;7.358;2023-04-08T00:29:27;3.60;1.00
5286;DHT22;2665;53.112;7.358;2023-04-08T00:31:53;3.60;1.00
5286;DHT22;2665;53.112;7.358;2023-04-08T00:34:19;3.50;99.90
5286;DHT22;2665;53.112;7.358;2023-04-08T00:36:45;3.50;99.90
5286;DHT22;2665;53.112;7.358;2023-04-08T00:39:13;3.50;1.00
5286;DHT22;2665;53.112;7.358;2023-04-08T00:41:39;3.50;1.00
5286;DHT22;2665;53.112;7.358;2023-04-08T00:44:05;3.50;1.00
5286;DHT22;2665;53.112;7.358;2023-04-08T00:46:35;3.50;1.00
5286;DHT22;2665;53.112;7.358;2023-04-08T00:49:01;3.40;1.00
5286;DHT22;2665;53.112;7.358;2023-04-08T00:51:28;3.40;1.00
5286;DHT22;2665;53.112;7.358;2023-04-08T00:53:55;3.40;1.00
5286;DHT22;2665;53.112;7.358;2023-04-08T00:56:22;3.40;1.00
5286;DHT22;2665;53.112;7.358;2023-04-08T00:58:48;3.40;1.00
5286;DHT22;2665;53.112;7.358;2023-04-08T01:01:24;3.40;1.00
5286;DHT22;2665;53.112;7.358;2023-04-08T01:04:13;3.50;13.40
5286;DHT22;2665;53.112;7.358;2023-04-08T01:06:58;3.60;99.90
5286;DHT22;2665;53.112;7.358;2023-04-08T01:09:30;3.70;99.90
5286;DHT22;2665;53.112;7.358;2023-04-08T01:11:58;3.80;99.90
5286;DHT22;2665;53.112;7.358;2023-04-08T01:14:27;3.90;1.00
5286;DHT22;2665;53.112;7.358;2023-04-08T01:16:57;4.00;1.00
5286;DHT22;2665;53.112;7.358;2023-04-08T01:19:34;4.10;1.00
5286;DHT22;2665;53.112;7.358;2023-04-08T01:24:42;4.20;99.90
5286;DHT22;2665;53.112;7.358;2023-04-08T01:27:09;4.30;1.00
5286;DHT22;2665;53.112;7.358;2023-04-08T01:29:36;4.40;1.00
5286;DHT22;2665;53.112;7.358;2023-04-08T01:32:03;4.40;1.00
5286;DHT22;2665;53.112;7.358;2023-04-08T01:34:30;4.50;1.00
5286;DHT22;2665;53.112;7.358;2023-04-08T01:36:58;4.50;1.00
5286;DHT22;2665;53.112;7.358;2023-04-08T01:39:24;4.60;99.90
5286;DHT22;2665;53.112;7.358;2023-04-08T01:41:52;4.60;99.90
5286;DHT22;2665;53.112;7.358;2023-04-08T01:44:19;4.60;99.90
5286;DHT22;2665;53.112;7.358;2023-04-08T01:46:46;4.60;99.90
5286;DHT22;2665;53.112;7.358;2023-04-08T01:49:14;4.70;99.90
5286;DHT22;2665;53.112;7.358;2023-04-08T01:51:40;4.70;1.00
5286;DHT22;2665;53.112;7.358;2023-04-08T01:54:06;4.70;1.00
5286;DHT22;2665;53.112;7.358;2023-04-08T01:56:35;4.80;1.00
5286;DHT22;2665;53.112;7.358;2023-04-08T01:59:06;4.80;1.00
5286;DHT22;2665;53.112;7.358;2023-04-08T02:01:34;4.80;99.90
5286;DHT22;2665;53.112;7.358;2023-04-08T02:04:01;4.80;99.90
5286;DHT22;2665;53.112;7.358;2023-04-08T02:06:27;4.80;13.00
5286;DHT22;2665;53.112;7.358;2023-04-08T02:08:54;4.70;1.00
5286;DHT22;2665;53.112;7.358;2023-04-08T02:11:20;4.70;1.00
5286;DHT22;2665;53.112;7.358;2023-04-08T02:13:46;4.60;1.00
5286;DHT22;2665;53.112;7.358;2023-04-08T02:16:23;4.50;1.00
5286;DHT22;2665;53.112;7.358;2023-04-08T02:19:04;4.30;99.90
5286;DHT22;2665;53.112;7.358;2023-04-08T02:21:37;4.20;1.00
5286;DHT22;2665;53.112;7.358;2023-04-08T02:24:07;4.20;1.00
5286;DHT22;2665;53.112;7.358;2023-04-08T02:26:35;4.10;1.00
5286;DHT22;2665;53.112;7.358;2023-04-08T02:29:02;4.10;77.90
5286;DHT22;2665;53.112;7.358;2023-04-08T02:31:29;4.10;1.00
5286;DHT22;2665;53.112;7.358;2023-04-08T02:33:56;4.20;1.00
5286;DHT22;2665;53.112;7.358;2023-04-08T02:36:22;4.20;21.10
5286;DHT22;2665;53.112;7.358;2023-04-08T02:38:48;4.20;1.00
5286;DHT22;2665;53.112;7.358;2023-04-08T02:41:14;4.30;1.00
5286;DHT22;2665;53.112;7.358;2023-04-08T02:43:41;4.30;1.00
5286;DHT22;2665;53.112;7.358;2023-04-08T02:46:07;4.40;99.90
5286;DHT22;2665;53.112;7.358;2023-04-08T02:48:34;4.40;99.90
5286;DHT22;2665;53.112;7.358;2023-04-08T02:51:00;4.40;99.90
5286;DHT22;2665;53.112;7.358;2023-04-08T02:53:26;4.40;1.00
5286;DHT22;2665;53.112;7.358;2023-04-08T02:55:52;4.40;1.00
5286;DHT22;2665;53.112;7.358;2023-04-08T02:58:17;4.30;99.90
5286;DHT22;2665;53.112;7.358;2023-04-08T03:00:43;4.30;1.00
5286;DHT22;2665;53.112;7.358;2023-04-08T03:03:09;4.30;99.90
5286;DHT22;2665;53.112;7.358;2023-04-08T03:05:34;4.30;1.00
5286;DHT22;2665;53.112;7.358;2023-04-08T03:08:00;4.30;99.90
5286;DHT22;2665;53.112;7.358;2023-04-08T03:10:25;4.30;99.90
5286;DHT22;2665;53.112;7.358;2023-04-08T03:12:51;4.30;99.90
5286;DHT22;2665;53.112;7.358;2023-04-08T03:15:17;4.40;99.90
5286;DHT22;2665;53.112;7.358;2023-04-08T03:17:42;4.40;1.00
5286;DHT22;2665;53.112;7.358;2023-04-08T03:20:08;4.40;99.90
5286;DHT22;2665;53.112;7.358;2023-04-08T03:22:35;4.40;99.90
5286;DHT22;2665;53.112;7.358;2023-04-08T03:25:01;4.50;99.90
5286;DHT22;2665;53.112;7.358;2023-04-08T03:27:26;4.40;99.90
5286;DHT22;2665;53.112;7.358;2023-04-08T03:29:52;4.40;99.90
5286;DHT22;2665;53.112;7.358;2023-04-08T03:32:18;4.40;37.90
5286;DHT22;2665;53.112;7.358;2023-04-08T03:34:44;4.40;1.00
5286;DHT22;2665;53.112;7.358;2023-04-08T03:37:10;4.40;1.00
5286;DHT22;2665;53.112;7.358;2023-04-08T03:39:36;4.30;37.80
5286;DHT22;2665;53.112;7.358;2023-04-08T03:42:02;4.30;99.90
5286;DHT22;2665;53.112;7.358;2023-04-08T03:44:28;4.30;99.90
5286;DHT22;2665;53.112;7.358;2023-04-08T03:46:53;4.40;1.00
5286;DHT22;2665;53.112;7.358;2023-04-08T03:49:19;4.40;1.00
5286;DHT22;2665;53.112;7.358;2023-04-08T03:51:45;4.40;99.90
5286;DHT22;2665;53.112;7.358;2023-04-08T03:54:10;4.50;99.90
5286;DHT22;2665;53.112;7.358;2023-04-08T03:56:36;4.50;99.90
5286;DHT22;2665;53.112;7.358;2023-04-08T03:59:01;4.50;99.90
5286;DHT22;2665;53.112;7.358;2023-04-08T04:01:27;4.60;1.00
5286;DHT22;2665;53.112;7.358;2023-04-08T04:03:54;4.60;1.00
5286;DHT22;2665;53.112;7.358;2023-04-08T04:06:19;4.70;1.00
5286;DHT22;2665;53.112;7.358;2023-04-08T04:08:45;4.70;1.00
5286;DHT22;2665;53.112;7.358;2023-04-08T04:11:11;4.80;1.00
5286;DHT22;2665;53.112;7.358;2023-04-08T04:13:36;4.80;1.00
5286;DHT22;2665;53.112;7.358;2023-04-08T04:16:02;4.90;1.00
5286;DHT22;2665;53.112;7.358;2023-04-08T04:18:28;4.90;1.00
5286;DHT22;2665;53.112;7.358;2023-04-08T04:20:53;5.00;1.00
5286;DHT22;2665;53.112;7.358;2023-04-08T04:23:19;5.00;1.00
5286;DHT22;2665;53.112;7.358;2023-04-08T04:25:45;5.00;1.00
5286;DHT22;2665;53.112;7.358;2023-04-08T04:28:11;5.00;1.00
5286;DHT22;2665;53.112;7.358;2023-04-08T04:30:37;5.10;1.00
5286;DHT22;2665;53.112;7.358;2023-04-08T04:33:04;5.00;1.00
5286;DHT22;2665;53.112;7.358;2023-04-08T04:35:30;5.10;1.00
5286;DHT22;2665;53.112;7.358;2023-04-08T04:37:55;5.10;1.00
5286;DHT22;2665;53.112;7.358;2023-04-08T04:40:21;5.00;99.90
5286;DHT22;2665;53.112;7.358;2023-04-08T04:42:46;5.00;99.90
5286;DHT22;2665;53.112;7.358;2023-04-08T04:45:12;5.00;99.90
5286;DHT22;2665;53.112;7.358;2023-04-08T04:47:38;5.00;99.90
5286;DHT22;2665;53.112;7.358;2023-04-08T04:50:04;5.00;99.90
5286;DHT22;2665;53.112;7.358;2023-04-08T04:52:30;5.00;99.90
5286;DHT22;2665;53.112;7.358;2023-04-08T04:54:58;5.00;99.90
5286;DHT22;2665;53.112;7.358;2023-04-08T04:57:24;5.10;99.90
5286;DHT22;2665;53.112;7.358;2023-04-08T04:59:49;5.10;99.90
5286;DHT22;2665;53.112;7.358;2023-04-08T05:02:15;5.10;99.90
5286;DHT22;2665;53.112;7.358;2023-04-08T05:04:41;5.20;99.90
5286;DHT22;2665;53.112;7.358;2023-04-08T05:07:07;5.20;99.90
5286;DHT22;2665;53.112;7.358;2023-04-08T05:09:32;5.30;99.90
5286;DHT22;2665;53.112;7.358;2023-04-08T05:11:58;5.30;99.90
5286;DHT22;2665;53.112;7.358;2023-04-08T05:14:23;5.30;99.90
5286;DHT22;2665;53.112;7.358;2023-04-08T05:16:49;5.30;99.90
5286;DHT22;2665;53.112;7.358;2023-04-08T05:19:15;5.30;99.90
5286;DHT22;2665;53.112;7.358;2023-04-08T05:24:06;5.40;99.90
5286;DHT22;2665;53.112;7.358;2023-04-08T05:26:32;5.50;1.00
5286;DHT22;2665;53.112;7.358;2023-04-08T05:28:58;5.60;1.00
5286;DHT22;2665;53.112;7.358;2023-04-08T05:31:23;5.70;1.00
5286;DHT22;2665;53.112;7.358;2023-04-08T05:33:49;5.70;99.90
5286;DHT22;2665;53.112;7.358;2023-04-08T05:36:15;5.80;99.90
5286;DHT22;2665;53.112;7.358;2023-04-08T05:38:41;5.90;99.90
5286;DHT22;2665;53.112;7.358;2023-04-08T05:41:09;5.90;99.90
5286;DHT22;2665;53.112;7.358;2023-04-08T05:43:35;6.00;55.10
5286;DHT22;2665;53.112;7.358;2023-04-08T05:46:08;6.10;38.80
5286;DHT22;2665;53.112;7.358;2023-04-08T05:48:34;6.10;1.00
5286;DHT22;2665;53.112;7.358;2023-04-08T05:50:59;6.20;1.00
5286;DHT22;2665;53.112;7.358;2023-04-08T05:53:25;6.20;1.00
5286;DHT22;2665;53.112;7.358;2023-04-08T05:55:51;6.30;1.00
5286;DHT22;2665;53.112;7.358;2023-04-08T05:58:16;6.30;1.00
5286;DHT22;2665;53.112;7.358;2023-04-08T06:00:42;6.40;99.90
5286;DHT22;2665;53.112;7.358;2023-04-08T06:03:08;6.40;99.90
5286;DHT22;2665;53.112;7.358;2023-04-08T06:05:33;6.30;99.90
5286;DHT22;2665;53.112;7.358;2023-04-08T06:07:59;6.30;99.90
5286;DHT22;2665;53.112;7.358;2023-04-08T06:10:25;6.30;99.90
5286;DHT22;2665;53.112;7.358;2023-04-08T06:12:50;6.20;99.90
5286;DHT22;2665;53.112;7.358;2023-04-08T06:15:16;6.20;99.90
5286;DHT22;2665;53.112;7.358;2023-04-08T06:17:41;6.20;99.90
5286;DHT22;2665;53.112;7.358;2023-04-08T06:20:07;6.20;1.00
5286;DHT22;2665;53.112;7.358;2023-04-08T06:22:36;6.20;1.00
5286;DHT22;2665;53.112;7.358;2023-04-08T06:25:02;6.20;99.90
5286;DHT22;2665;53.112;7.358;2023-04-08T06:27:28;6.30;1.00
5286;DHT22;2665;53.112;7.358;2023-04-08T06:29:54;6.30;99.90
5286;DHT22;2665;53.112;7.358;2023-04-08T06:32:20;6.30;99.90
5286;DHT22;2665;53.112;7.358;2023-04-08T06:34:46;6.30;1.00
5286;DHT22;2665;53.112;7.358;2023-04-08T06:37:12;6.30;1.00
5286;DHT22;2665;53.112;7.358;2023-04-08T06:39:37;6.40;1.00
5286;DHT22;2665;53.112;7.358;2023-04-08T06:42:03;6.40;1.00
5286;DHT22;2665;53.112;7.358;2023-04-08T06:44:28;6.40;1.00
5286;DHT22;2665;53.112;7.358;2023-04-08T06:46:54;6.40;1.00
5286;DHT22;2665;53.112;7.358;2023-04-08T06:49:20;6.40;1.00
5286;DHT22;2665;53.112;7.358;2023-04-08T06:51:46;6.40;99.90
5286;DHT22;2665;53.112;7.358;2023-04-08T06:54:11;6.40;99.90
5286;DHT22;2665;53.112;7.358;2023-04-08T06:56:37;6.40;1.00
5286;DHT22;2665;53.112;7.358;2023-04-08T06:59:02;6.40;1.00
5286;DHT22;2665;53.112;7.358;2023-04-08T07:01:29;6.40;1.00
5286;DHT22;2665;53.112;7.358;2023-04-08T07:03:56;6.50;1.00
5286;DHT22;2665;53.112;7.358;2023-04-08T07:06:22;6.50;1.00
5286;DHT22;2665;53.112;7.358;2023-04-08T07:08:47;6.50;1.00
5286;DHT22;2665;53.112;7.358;2023-04-08T07:11:13;6.50;1.00
5286;DHT22;2665;53.112;7.358;2023-04-08T07:13:38;6.60;1.00
5286;DHT22;2665;53.112;7.358;2023-04-08T07:16:04;6.70;1.00
5286;DHT22;2665;53.112;7.358;2023-04-08T07:18:31;6.80;1.00
5286;DHT22;2665;53.112;7.358;2023-04-08T07:20:57;6.80;1.00
5286;DHT22;2665;53.112;7.358;2023-04-08T07:23:23;6.90;1.00
5286;DHT22;2665;53.112;7.358;2023-04-08T07:25:48;7.00;1.00
5286;DHT22;2665;53.112;7.358;2023-04-08T07:28:14;7.10;1.00
5286;DHT22;2665;53.112;7.358;2023-04-08T07:30:40;7.10;1.00
5286;DHT22;2665;53.112;7.358;2023-04-08T07:33:05;7.30;1.00
5286;DHT22;2665;53.112;7.358;2023-04-08T07:35:33;7.30;97.30
5286;DHT22;2665;53.112;7.358;2023-04-08T07:37:58;7.40;1.00
5286;DHT22;2665;53.112;7.358;2023-04-08T07:40:24;7.30;1.00
5286;DHT22;2665;53.112;7.358;2023-04-08T07:42:50;7.30;99.90
5286;DHT22;2665;53.112;7.358;2023-04-08T07:45:16;7.40;1.00
5286;DHT22;2665;53.112;7.358;2023-04-08T07:47:41;7.40;99.90
5286;DHT22;2665;53.112;7.358;2023-04-08T07:50:08;7.50;99.90
5286;DHT22;2665;53.112;7.358;2023-04-08T07:52:33;7.50;99.90
5286;DHT22;2665;53.112;7.358;2023-04-08T07:54:59;7.50;1.00
5286;DHT22;2665;53.112;7.358;2023-04-08T07:57:26;7.50;1.00
5286;DHT22;2665;53.112;7.358;2023-04-08T07:59:51;7.40;1.00
5286;DHT22;2665;53.112;7.358;2023-04-08T08:02:17;7.40;1.00
5286;DHT22;2665;53.112;7.358;2023-04-08T08:04:43;7.40;1.00
5286;DHT22;2665;53.112;7.358;2023-04-08T08:07:08;7.50;2.40
5286;DHT22;2665;53.112;7.358;2023-04-08T08:09:34;7.50;1.00
5286;DHT22;2665;53.112;7.358;2023-04-08T08:12:00;7.50;2.30
5286;DHT22;2665;53.112;7.358;2023-04-08T08:14:26;7.60;1.00
5286;DHT22;2665;53.112;7.358;2023-04-08T08:16:52;7.60;99.90
5286;DHT22;2665;53.112;7.358;2023-04-08T08:19:22;7.60;99.90
5286;DHT22;2665;53.112;7.358;2023-04-08T08:21:47;7.60;99.90
5286;DHT22;2665;53.112;7.358;2023-04-08T08:24:15;7.60;1.00
5286;DHT22;2665;53.112;7.358;2023-04-08T08:26:41;7.50;1.00
5286;DHT22;2665;53.112;7.358;2023-04-08T08:29:06;7.60;99.90
5286;DHT22;2665;53.112;7.358;2023-04-08T08:31:33;7.70;99.90
5286;DHT22;2665;53.112;7.358;2023-04-08T08:33:59;7.80;99.90
5286;DHT22;2665;53.112;7.358;2023-04-08T08:36:25;7.80;26.60
5286;DHT22;2665;53.112;7.358;2023-04-08T08:38:52;7.90;1.00
5286;DHT22;2665;53.112;7.358;2023-04-08T08:41:19;7.90;99.90
5286;DHT22;2665;53.112;7.358;2023-04-08T08:43:45;7.90;1.00
5286;DHT22;2665;53.112;7.358;2023-04-08T08:46:12;8.00;1.00
5286;DHT22;2665;53.112;7.358;2023-04-08T08:48:39;8.10;99.90
5286;DHT22;2665;53.112;7.358;2023-04-08T08:51:09;8.30;99.90
5286;DHT22;2665;53.112;7.358;2023-04-08T08:53:35;8.50;1.00
5286;DHT22;2665;53.112;7.358;2023-04-08T08:56:01;8.70;94.40
5286;DHT22;2665;53.112;7.358;2023-04-08T08:58:27;8.80;1.00
5286;DHT22;2665;53.112;7.358;2023-04-08T09:00:53;8.80;1.00
5286;DHT22;2665;53.112;7.358;2023-04-08T09:08:30;8.90;1.00
5286;DHT22;2665;53.112;7.358;2023-04-08T09:11:26;8.90;1.00
5286;DHT22;2665;53.112;7.358;2023-04-08T09:13:51;8.90;1.00
5286;DHT22;2665;53.112;7.358;2023-04-08T09:16:18;8.90;1.00
5286;DHT22;2665;53.112;7.358;2023-04-08T09:18:45;9.00;1.00
5286;DHT22;2665;53.112;7.358;2023-04-08T09:21:13;9.10;99.90
5286;DHT22;2665;53.112;7.358;2023-04-08T09:26:09;9.20;99.90
5286;DHT22;2665;53.112;7.358;2023-04-08T09:28:36;9.20;99.90
5286;DHT22;2665;53.112;7.358;2023-04-08T09:31:23;9.20;99.90
5286;DHT22;2665;53.112;7.358;2023-04-08T09:33:51;9.20;99.90
5286;DHT22;2665;53.112;7.358;2023-04-08T09:36:17;9.20;99.90
5286;DHT22;2665;53.112;7.358;2023-04-08T09:38:44;9.20;1.00
5286;DHT22;2665;53.112;7.358;2023-04-08T09:41:13;9.20;1.00
5286;DHT22;2665;53.112;7.358;2023-04-08T09:43:48;9.10;1.00
5286;DHT22;2665;53.112;7.358;2023-04-08T09:46:15;9.20;67.70
5286;DHT22;2665;53.112;7.358;2023-04-08T09:48:48;9.20;99.90
5286;DHT22;2665;53.112;7.358;2023-04-08T09:51:15;9.30;99.90
5286;DHT22;2665;53.112;7.358;2023-04-08T09:53:49;9.20;99.90
5286;DHT22;2665;53.112;7.358;2023-04-08T09:56:18;9.30;99.90
5286;DHT22;2665;53.112;7.358;2023-04-08T09:58:51;9.30;99.90
5286;DHT22;2665;53.112;7.358;2023-04-08T10:01:25;9.40;99.90
5286;DHT22;2665;53.112;7.358;2023-04-08T10:03:53;9.40;99.90
5286;DHT22;2665;53.112;7.358;2023-04-08T10:06:21;9.50;43.20
5286;DHT22;2665;53.112;7.358;2023-04-08T10:08:52;9.50;1.00
5286;DHT22;2665;53.112;7.358;2023-04-08T10:11:18;9.50;1.00
5286;DHT22;2665;53.112;7.358;2023-04-08T10:13:44;9.60;1.00
5286;DHT22;2665;53.112;7.358;2023-04-08T10:16:22;9.60;1.00
5286;DHT22;2665;53.112;7.358;2023-04-08T10:18:52;9.70;99.90
5286;DHT22;2665;53.112;7.358;2023-04-08T10:21:39;9.70;69.70
5286;DHT22;2665;53.112;7.358;2023-04-08T10:24:12;9.70;1.00
5286;DHT22;2665;53.112;7.358;2023-04-08T10:26:40;9.70;24.00
5286;DHT22;2665;53.112;7.358;2023-04-08T10:31:49;9.90;99.90
5286;DHT22;2665;53.112;7.358;2023-04-08T10:36:45;10.00;1.00
5286;DHT22;2665;53.112;7.358;2023-04-08T10:39:12;9.90;99.90
5286;DHT22;2665;53.112;7.358;2023-04-08T10:41:43;9.90;99.90
5286;DHT22;2665;53.112;7.358;2023-04-08T10:44:23;9.90;1.00
5286;DHT22;2665;53.112;7.358;2023-04-08T10:46:50;9.80;1.00
5286;DHT22;2665;53.112;7.358;2023-04-08T10:49:16;9.80;1.00
5286;DHT22;2665;53.112;7.358;2023-04-08T10:51:43;9.80;1.00
5286;DHT22;2665;53.112;7.358;2023-04-08T10:54:13;9.90;2.70
5286;DHT22;2665;53.112;7.358;2023-04-08T10:56:48;9.90;1.00
5286;DHT22;2665;53.112;7.358;2023-04-08T10:59:16;9.90;1.00
5286;DHT22;2665;53.112;7.358;2023-04-08T11:01:43;9.90;1.00
5286;DHT22;2665;53.112;7.358;2023-04-08T11:04:13;10.00;1.00
5286;DHT22;2665;53.112;7.358;2023-04-08T11:06:41;10.00;1.00
5286;DHT22;2665;53.112;7.358;2023-04-08T11:09:07;10.00;1.00
5286;DHT22;2665;53.112;7.358;2023-04-08T11:11:33;10.00;1.00
5286;DHT22;2665;53.112;7.358;2023-04-08T11:13:59;10.00;1.00
5286;DHT22;2665;53.112;7.358;2023-04-08T11:16:26;10.10;99.90
5286;DHT22;2665;53.112;7.358;2023-04-08T11:18:52;10.00;99.90
5286;DHT22;2665;53.112;7.358;2023-04-08T11:21:18;10.10;1.00
5286;DHT22;2665;53.112;7.358;2023-04-08T11:23:44;10.20;1.00
5286;DHT22;2665;53.112;7.358;2023-04-08T11:26:10;10.30;1.00
5286;DHT22;2665;53.112;7.358;2023-04-08T11:28:36;10.30;99.90
5286;DHT22;2665;53.112;7.358;2023-04-08T11:31:02;10.30;99.90
5286;DHT22;2665;53.112;7.358;2023-04-08T11:33:31;10.30;99.90
5286;DHT22;2665;53.112;7.358;2023-04-08T11:36:01;10.40;99.90
5286;DHT22;2665;53.112;7.358;2023-04-08T11:38:28;10.40;1.00
5286;DHT22;2665;53.112;7.358;2023-04-08T11:40:58;10.40;1.00
5286;DHT22;2665;53.112;7.358;2023-04-08T11:43:24;10.40;1.00
5286;DHT22;2665;53.112;7.358;2023-04-08T11:45:53;10.50;1.00
5286;DHT22;2665;53.112;7.358;2023-04-08T11:48:19;10.50;1.00
5286;DHT22;2665;53.112;7.358;2023-04-08T11:50:44;10.50;1.00
5286;DHT22;2665;53.112;7.358;2023-04-08T11:53:17;10.60;22.70
5286;DHT22;2665;53.112;7.358;2023-04-08T11:55:46;10.60;1.00
5286;DHT22;2665;53.112;7.358;2023-04-08T11:58:13;10.70;1.00
5286;DHT22;2665;53.112;7.358;2023-04-08T12:00:38;10.80;1.00
5286;DHT22;2665;53.112;7.358;2023-04-08T12:03:05;10.80;1.00
5286;DHT22;2665;53.112;7.358;2023-04-08T12:05:31;10.80;99.90
5286;DHT22;2665;53.112;7.358;2023-04-08T12:07:57;10.90;99.90
5286;DHT22;2665;53.112;7.358;2023-04-08T12:10:22;10.90;99.90
5286;DHT22;2665;53.112;7.358;2023-04-08T12:12:49;11.00;99.90
5286;DHT22;2665;53.112;7.358;2023-04-08T12:15:15;11.10;99.90
5286;DHT22;2665;53.112;7.358;2023-04-08T12:17:41;11.20;99.90
5286;DHT22;2665;53.112;7.358;2023-04-08T12:20:08;11.30;1.00
5286;DHT22;2665;53.112;7.358;2023-04-08T12:22:34;11.40;1.00
5286;DHT22;2665;53.112;7.358;2023-04-08T12:25:00;11.40;1.00
5286;DHT22;2665;53.112;7.358;2023-04-08T12:27:27;11.40;1.00
5286;DHT22;2665;53.112;7.358;2023-04-08T12:29:53;11.50;1.00
5286;DHT22;2665;53.112;7.358;2023-04-08T12:32:19;11.60;1.00
5286;DHT22;2665;53.112;7.358;2023-04-08T12:34:46;11.60;99.90
5286;DHT22;2665;53.112;7.358;2023-04-08T12:37:12;11.70;99.90
5286;DHT22;2665;53.112;7.358;2023-04-08T12:39:37;11.70;99.90
5286;DHT22;2665;53.112;7.358;2023-04-08T12:42:03;11.80;54.00
5286;DHT22;2665;53.112;7.358;2023-04-08T12:44:29;11.90;1.00
5286;DHT22;2665;53.112;7.358;2023-04-08T12:46:55;12.00;99.90
5286;DHT22;2665;53.112;7.358;2023-04-08T12:49:23;12.00;99.90
5286;DHT22;2665;53.112;7.358;2023-04-08T12:51:48;12.00;99.90
5286;DHT22;2665;53.112;7.358;2023-04-08T12:54:14;12.10;99.90
5286;DHT22;2665;53.112;7.358;2023-04-08T12:56:41;12.00;99.90
5286;DHT22;2665;53.112;7.358;2023-04-08T12:59:08;12.10;99.90
5286;DHT22;2665;53.112;7.358;2023-04-08T13:01:34;12.30;99.90
5286;DHT22;2665;53.112;7.358;2023-04-08T13:03:59;12.40;99.90
5286;DHT22;2665;53.112;7.358;2023-04-08T13:06:25;12.60;99.90
5286;DHT22;2665;53.112;7.358;2023-04-08T13:08:52;12.50;99.90
5286;DHT22;2665;53.112;7.358;2023-04-08T13:11:17;12.60;99.90
5286;DHT22;2665;53.112;7.358;2023-04-08T13:13:43;12.50;99.90
5286;DHT22;2665;53.112;7.358;2023-04-08T13:16:11;12.50;99.90
5286;DHT22;2665;53.112;7.358;2023-04-08T13:18:36;12.50;99.90
5286;DHT22;2665;53.112;7.358;2023-04-08T13:21:02;12.50;99.90
5286;DHT22;2665;53.112;7.358;2023-04-08T13:23:28;12.60;99.90
5286;DHT22;2665;53.112;7.358;2023-04-08T13:25:53;12.70;99.90
5286;DHT22;2665;53.112;7.358;2023-04-08T13:28:19;12.80;99.90
5286;DHT22;2665;53.112;7.358;2023-04-08T13:30:45;12.90;99.90
5286;DHT22;2665;53.112;7.358;2023-04-08T13:33:10;13.10;99.90
5286;DHT22;2665;53.112;7.358;2023-04-08T13:35:36;13.30;99.90
5286;DHT22;2665;53.112;7.358;2023-04-08T13:38:01;13.50;99.90
5286;DHT22;2665;53.112;7.358;2023-04-08T13:40:27;13.50;99.90
5286;DHT22;2665;53.112;7.358;2023-04-08T13:42:53;13.50;99.90
5286;DHT22;2665;53.112;7.358;2023-04-08T13:45:18;13.40;99.90
5286;DHT22;2665;53.112;7.358;2023-04-08T13:47:44;13.40;99.90
5286;DHT22;2665;53.112;7.358;2023-04-08T13:50:10;13.50;99.90
5286;DHT22;2665;53.112;7.358;2023-04-08T13:52:36;13.50;99.90
5286;DHT22;2665;53.112;7.358;2023-04-08T13:55:01;13.40;99.90
5286;DHT22;2665;53.112;7.358;2023-04-08T13:57:27;13.30;99.90
5286;DHT22;2665;53.112;7.358;2023-04-08T13:59:53;13.20;99.90
5286;DHT22;2665;53.112;7.358;2023-04-08T14:02:19;13.50;99.90
5286;DHT22;2665;53.112;7.358;2023-04-08T14:04:44;13.80;99.90
5286;DHT22;2665;53.112;7.358;2023-04-08T14:07:11;14.60;99.90
5286;DHT22;2665;53.112;7.358;2023-04-08T14:09:37;15.40;99.90
5286;DHT22;2665;53.112;7.358;2023-04-08T14:12:02;15.90;99.90
5286;DHT22;2665;53.112;7.358;2023-04-08T14:14:28;16.40;99.90
5286;DHT22;2665;53.112;7.358;2023-04-08T14:16:54;17.10;99.90
5286;DHT22;2665;53.112;7.358;2023-04-08T14:19:19;17.80;99.90
5286;DHT22;2665;53.112;7.358;2023-04-08T14:21:45;18.50;99.90
5286;DHT22;2665;53.112;7.358;2023-04-08T14:24:11;18.90;99.90
5286;DHT22;2665;53.112;7.358;2023-04-08T14:26:36;19.00;99.90
5286;DHT22;2665;53.112;7.358;2023-04-08T14:29:04;19.60;99.90
5286;DHT22;2665;53.112;7.358;2023-04-08T14:33:57;18.10;61.10
5286;DHT22;2665;53.112;7.358;2023-04-08T14:36:23;17.90;78.20
5286;DHT22;2665;53.112;7.358;2023-04-08T14:38:49;17.80;76.60
5286;DHT22;2665;53.112;7.358;2023-04-08T14:41:15;17.50;76.90
5286;DHT22;2665;53.112;7.358;2023-04-08T14:43:40;17.10;73.50
5286;DHT22;2665;53.112;7.358;2023-04-08T14:46:06;16.80;73.20
5286;DHT22;2665;53.112;7.358;2023-04-08T14:48:32;16.80;78.90
5286;DHT22;2665;53.112;7.358;2023-04-08T14:50:57;17.30;84.50
5286;DHT22;2665;53.112;7.358;2023-04-08T14:53:24;17.70;82.80
5286;DHT22;2665;53.112;7.358;2023-04-08T14:55:50;17.80;78.40
5286;DHT22;2665;53.112;7.358;2023-04-08T14:58:16;17.30;73.50
5286;DHT22;2665;53.112;7.358;2023-04-08T15:00:42;16.70;68.80
5286;DHT22;2665;53.112;7.358;2023-04-08T15:03:10;16.50;71.10
5286;DHT22;2665;53.112;7.358;2023-04-08T15:05:36;17.00;76.70
5286;DHT22;2665;53.112;7.358;2023-04-08T15:08:03;17.70;83.30
5286;DHT22;2665;53.112;7.358;2023-04-08T15:10:28;18.10;82.90
5286;DHT22;2665;53.112;7.358;2023-04-08T15:12:54;18.50;83.90
5286;DHT22;2665;53.112;7.358;2023-04-08T15:15:20;18.60;86.80
5286;DHT22;2665;53.112;7.358;2023-04-08T15:17:46;18.50;72.90
5286;DHT22;2665;53.112;7.358;2023-04-08T15:20:11;18.10;66.40
5286;DHT22;2665;53.112;7.358;2023-04-08T15:22:38;17.50;63.30
5286;DHT22;2665;53.112;7.358;2023-04-08T15:25:05;17.30;61.60
5286;DHT22;2665;53.112;7.358;2023-04-08T15:27:31;16.80;60.70
5286;DHT22;2665;53.112;7.358;2023-04-08T15:29:57;16.60;81.90
5286;DHT22;2665;53.112;7.358;2023-04-08T15:32:23;16.40;62.20
5286;DHT22;2665;53.112;7.358;2023-04-08T15:34:48;16.10;80.10
5286;DHT22;2665;53.112;7.358;2023-04-08T15:37:15;15.70;66.00
5286;DHT22;2665;53.112;7.358;2023-04-08T15:39:41;15.20;60.60
5286;DHT22;2665;53.112;7.358;2023-04-08T15:42:07;14.90;61.70
5286;DHT22;2665;53.112;7.358;2023-04-08T15:44:33;14.70;64.70
5286;DHT22;2665;53.112;7.358;2023-04-08T15:46:58;14.60;67.10
5286;DHT22;2665;53.112;7.358;2023-04-08T15:49:24;14.40;71.70
5286;DHT22;2665;53.112;7.358;2023-04-08T15:51:50;14.20;76.30
5286;DHT22;2665;53.112;7.358;2023-04-08T15:54:17;14.10;76.60
5286;DHT22;2665;53.112;7.358;2023-04-08T15:56:43;14.00;80.40
5286;DHT22;2665;53.112;7.358;2023-04-08T15:59:11;13.90;80.70
5286;DHT22;2665;53.112;7.358;2023-04-08T16:01:37;13.80;82.50
5286;DHT22;2665;53.112;7.358;2023-04-08T16:04:02;13.70;87.00
5286;DHT22;2665;53.112;7.358;2023-04-08T16:06:28;13.60;86.80
5286;DHT22;2665;53.112;7.358;2023-04-08T16:08:54;13.50;91.50
5286;DHT22;2665;53.112;7.358;2023-04-08T16:11:21;13.40;93.10
5286;DHT22;2665;53.112;7.358;2023-04-08T16:13:46;13.20;92.80
5286;DHT22;2665;53.112;7.358;2023-04-08T16:16:12;13.10;92.90
5286;DHT22;2665;53.112;7.358;2023-04-08T16:18:38;13.10;94.50
5286;DHT22;2665;53.112;7.358;2023-04-08T16:21:05;13.00;95.50
5286;DHT22;2665;53.112;7.358;2023-04-08T16:23:32;12.90;96.60
5286;DHT22;2665;53.112;7.358;2023-04-08T16:25:58;12.90;97.10
5286;DHT22;2665;53.112;7.358;2023-04-08T16:28:24;12.90;96.60
5286;DHT22;2665;53.112;7.358;2023-04-08T16:30:52;12.80;98.60
5286;DHT22;2665;53.112;7.358;2023-04-08T16:33:17;12.70;98.80
5286;DHT22;2665;53.112;7.358;2023-04-08T16:35:43;12.70;98.50